Terminal Aerodrome Forecast
Issued by NWS Newport/Morehead City, NC

Home | Current Version | Previous Version | Text Only | Print | Product List | Glossary Off
Versions: 1 2 3 4 5 6 7 8 9 10 11 12 13 14 15 16 17 18 19 20 21 22 23 24 25 26

000
FTUS42 KMHX 190500
TAFEWN
TAF
KEWN 190539Z 1906/2006 18005KT P6SM SCT050 BKN100
     FM190900 21003KT 4SM BR SCT005 SCT050
     FM191300 25007KT P6SM SCT040
     FM191900 29008KT P6SM VCTS BKN040CB
     FM200100 33004KT P6SM BKN040=

USA.gov is the U.S. government's official web portal to all federal, state and local government web resources and services.